createdAt,value
2018-06-29T00:01:46.346Z,94028.41
2018-06-29T00:04:15.650Z,94020.81
2018-06-29T00:06:45.142Z,94024.45
2018-06-29T00:09:14.592Z,94026.31
2018-06-29T00:11:43.894Z,94030.54
2018-06-29T00:14:13.257Z,94033.19
2018-06-29T00:16:42.740Z,94027.96
2018-06-29T00:19:12.006Z,94019.81
2018-06-29T00:21:42.311Z,94026.86
2018-06-29T00:24:11.597Z,94024.87
2018-06-29T00:26:40.892Z,94025.11
2018-06-29T00:29:10.141Z,94022.59
2018-06-29T00:31:39.581Z,94027.02
2018-06-29T00:34:09.051Z,94021.01
2018-06-29T00:36:38.568Z,94016.06
2018-06-29T00:39:08.779Z,94011.88
2018-06-29T00:41:38.204Z,94015.27
2018-06-29T00:44:07.693Z,94016.30
2018-06-29T00:46:37.160Z,94017.89
2018-06-29T00:49:06.456Z,94014.44
2018-06-29T00:51:35.786Z,94019.66
2018-06-29T00:54:05.174Z,94019.50
2018-06-29T00:56:34.444Z,94012.14
2018-06-29T00:59:03.939Z,94008.50
2018-06-29T01:01:33.246Z,94007.20
2018-06-29T01:04:02.637Z,94008.03
2018-06-29T01:06:31.930Z,94012.45
2018-06-29T01:09:01.258Z,94009.05
2018-06-29T01:11:30.979Z,94006.69
2018-06-29T01:14:00.264Z,94007.98
2018-06-29T01:16:29.900Z,94011.19
2018-06-29T01:18:59.267Z,94007.55
2018-06-29T01:21:28.712Z,94004.66
2018-06-29T01:23:58.098Z,94009.36
2018-06-29T01:26:27.416Z,94005.20
2018-06-29T01:28:56.868Z,94003.86
2018-06-29T01:31:26.165Z,93996.82
2018-06-29T01:33:56.206Z,93996.75
2018-06-29T01:36:25.675Z,93994.11
2018-06-29T01:38:55.060Z,93996.78
2018-06-29T01:41:24.426Z,93989.02
2018-06-29T01:43:53.825Z,93995.00
2018-06-29T01:46:23.640Z,93981.08
2018-06-29T01:48:52.950Z,93982.14
2018-06-29T01:51:22.354Z,93971.14
2018-06-29T01:53:51.696Z,93977.92
2018-06-29T01:56:21.005Z,93967.74
2018-06-29T01:58:50.441Z,93972.48
2018-06-29T02:01:19.889Z,93965.95
2018-06-29T02:03:49.213Z,93967.75
2018-06-29T02:06:18.652Z,93971.39
2018-06-29T02:08:49.251Z,93967.22
2018-06-29T02:11:18.592Z,93968.53
2018-06-29T02:13:47.888Z,93969.53
2018-06-29T02:16:17.188Z,93965.37
2018-06-29T02:18:46.506Z,93966.44
2018-06-29T02:21:15.794Z,93965.92
2018-06-29T02:23:45.052Z,93956.78
2018-06-29T02:26:14.581Z,93952.11
2018-06-29T02:28:43.836Z,93941.11
2018-06-29T02:31:13.309Z,93939.73
2018-06-29T02:33:42.646Z,93945.51
2018-06-29T02:36:12.114Z,93943.38
2018-06-29T02:38:41.699Z,93952.03
2018-06-29T02:41:11.245Z,93954.65
2018-06-29T02:43:40.668Z,93951.25
2018-06-29T02:46:10.647Z,93952.83
2018-06-29T02:48:40.035Z,93952.28
2018-06-29T02:51:09.473Z,93954.86
2018-06-29T02:53:38.743Z,93946.50
2018-06-29T02:56:08.325Z,93947.30
2018-06-29T02:58:38.155Z,93939.49
2018-06-29T03:01:07.595Z,93942.11
2018-06-29T03:03:37.856Z,93938.22
2018-06-29T03:06:07.235Z,93939.84
2018-06-29T03:08:36.748Z,93935.44
2018-06-29T03:11:06.216Z,93935.92
2018-06-29T03:13:35.469Z,93932.25
2018-06-29T03:16:05.034Z,93930.94
2018-06-29T03:18:35.161Z,93933.55
2018-06-29T03:21:05.023Z,93942.17
2018-06-29T03:23:34.462Z,93942.97
2018-06-29T03:26:03.956Z,93928.09
2018-06-29T03:28:33.303Z,93933.06
2018-06-29T03:31:02.621Z,93931.69
2018-06-29T03:33:32.147Z,93935.64
2018-06-29T03:36:01.423Z,93929.32
2018-06-29T03:38:30.830Z,93937.95
2018-06-29T03:41:00.430Z,93936.41
2018-06-29T03:43:29.849Z,93931.17
2018-06-29T03:45:59.472Z,93926.71
2018-06-29T03:48:29.168Z,93930.94
2018-06-29T03:50:58.590Z,93923.62
2018-06-29T03:53:28.088Z,93926.47
2018-06-29T03:55:58.515Z,93922.03
2018-06-29T03:58:27.962Z,93917.05
2018-06-29T04:00:57.370Z,93925.65
2018-06-29T04:03:26.692Z,93933.52
2018-06-29T04:05:56.043Z,93936.92
2018-06-29T04:08:25.320Z,93944.13
2018-06-29T04:10:54.638Z,93943.45
2018-06-29T04:13:24.488Z,93940.56
2018-06-29T04:15:53.866Z,93929.36
2018-06-29T04:18:23.262Z,93927.05
2018-06-29T04:20:52.734Z,93930.42
2018-06-29T04:23:22.158Z,93937.02
2018-06-29T04:25:51.509Z,93936.23
2018-06-29T04:28:20.861Z,93935.68
2018-06-29T04:30:50.375Z,93942.45
2018-06-29T04:33:20.133Z,93944.41
2018-06-29T04:35:49.671Z,93943.67
2018-06-29T04:38:19.051Z,93937.59
2018-06-29T04:40:48.405Z,93940.45
2018-06-29T04:43:18.803Z,93935.71
2018-06-29T04:45:48.196Z,93927.84
2018-06-29T04:48:17.491Z,93923.10
2018-06-29T04:50:46.961Z,93912.20
2018-06-29T04:53:16.383Z,93906.77
2018-06-29T04:55:45.547Z,93912.05
2018-06-29T04:58:14.685Z,93919.64
2018-06-29T05:00:43.799Z,93931.09
2018-06-29T05:03:13.853Z,93938.97
2018-06-29T05:05:42.902Z,93940.06
2018-06-29T05:08:12.053Z,93922.34
2018-06-29T05:10:41.331Z,93914.27
2018-06-29T05:13:10.731Z,93921.56
2018-06-29T05:15:39.803Z,93917.39
2018-06-29T05:18:09.021Z,93913.80
2018-06-29T05:20:38.102Z,93916.42
2018-06-29T05:23:08.014Z,93926.68
2018-06-29T05:25:37.045Z,93931.45
2018-06-29T05:28:06.161Z,93934.09
2018-06-29T05:30:35.200Z,93936.19
2018-06-29T05:33:04.864Z,93938.53
2018-06-29T05:35:35.166Z,93937.22
2018-06-29T05:38:05.711Z,93938.28
2018-06-29T05:40:34.975Z,93939.07
2018-06-29T05:43:04.505Z,93943.27
2018-06-29T05:45:33.951Z,93940.92
2018-06-29T05:48:03.139Z,93936.43
2018-06-29T05:50:32.622Z,93946.67
2018-06-29T05:53:02.248Z,93941.47
2018-06-29T05:55:31.540Z,93938.34
2018-06-29T05:58:00.827Z,93945.14
2018-06-29T06:00:30.127Z,93937.84
2018-06-29T06:02:59.565Z,93937.33
2018-06-29T06:05:29.081Z,93943.45
2018-06-29T06:07:59.676Z,93937.75
2018-06-29T06:10:29.292Z,93934.34
2018-06-29T06:12:59.054Z,93928.88
2018-06-29T06:15:28.539Z,93934.17
2018-06-29T06:17:58.242Z,93933.66
2018-06-29T06:20:29.417Z,93934.69
2018-06-29T06:23:08.414Z,93937.31
2018-06-29T06:25:39.287Z,93950.39
2018-06-29T06:28:08.637Z,93948.05
2018-06-29T06:30:37.939Z,93952.50
2018-06-29T06:33:07.189Z,93950.41
2018-06-29T06:35:37.613Z,93945.47
2018-06-29T06:38:07.500Z,93943.94
2018-06-29T06:40:36.883Z,93942.11
2018-06-29T06:43:07.068Z,93944.20
2018-06-29T06:45:36.841Z,93947.86
2018-06-29T06:48:06.154Z,93959.31
2018-06-29T06:50:35.230Z,93957.76
2018-06-29T06:53:04.285Z,93958.05
2018-06-29T06:55:33.396Z,93952.77
2018-06-29T06:58:02.514Z,93950.92
2018-06-29T07:00:31.531Z,93959.56
2018-06-29T07:03:00.645Z,93973.19
2018-06-29T07:05:29.971Z,93973.67
2018-06-29T07:08:00.063Z,93976.81
2018-06-29T07:10:29.482Z,93961.69
2018-06-29T07:12:58.561Z,93961.16
2018-06-29T07:15:27.743Z,93966.08
2018-06-29T07:17:56.876Z,93969.70
2018-06-29T07:20:25.915Z,93973.14
2018-06-29T07:22:54.979Z,93979.30
2018-06-29T07:25:26.612Z,93981.28
2018-06-29T07:27:55.808Z,93989.11
2018-06-29T07:30:25.130Z,93988.07
2018-06-29T07:32:54.420Z,93995.13
2018-06-29T07:35:23.876Z,93993.77
2018-06-29T07:37:53.434Z,94005.12
2018-06-29T07:40:22.790Z,94000.36
2018-06-29T07:42:52.034Z,94005.78
2018-06-29T07:45:21.560Z,94007.84
2018-06-29T07:47:50.998Z,94011.95
2018-06-29T07:50:20.325Z,94017.73
2018-06-29T07:52:49.978Z,94008.88
2018-06-29T07:55:19.345Z,94008.88
2018-06-29T07:57:49.064Z,94003.66
2018-06-29T08:00:18.717Z,94001.13
2018-06-29T08:02:48.501Z,93997.49
2018-06-29T08:05:18.034Z,93996.27
2018-06-29T08:07:47.648Z,93996.31
2018-06-29T08:10:18.454Z,93991.37
2018-06-29T08:12:47.738Z,93990.53
2018-06-29T08:15:17.060Z,93992.83
2018-06-29T08:17:46.382Z,93992.70
2018-06-29T08:20:15.594Z,93977.49
2018-06-29T08:22:45.122Z,93971.98
2018-06-29T08:25:15.611Z,93977.02
2018-06-29T08:27:45.131Z,93980.60
2018-06-29T08:30:15.002Z,93987.70
2018-06-29T08:32:44.342Z,93980.75
2018-06-29T08:35:13.763Z,93986.23
2018-06-29T08:37:43.068Z,93986.90
2018-06-29T08:40:12.526Z,93995.63
2018-06-29T08:42:41.870Z,93999.29
2018-06-29T08:45:11.249Z,94003.17
2018-06-29T08:47:40.577Z,94013.88
2018-06-29T08:50:09.991Z,94007.38
2018-06-29T08:52:39.582Z,94012.38
2018-06-29T08:55:09.197Z,94004.05
2018-06-29T08:57:39.657Z,93992.58
2018-06-29T09:00:09.353Z,94000.70
2018-06-29T09:02:38.684Z,94001.75
2018-06-29T09:05:08.863Z,93992.34
2018-06-29T09:07:38.357Z,93988.80
2018-06-29T09:10:07.796Z,93999.59
2018-06-29T09:12:37.716Z,94001.14
2018-06-29T09:15:07.294Z,94000.63
2018-06-29T09:17:36.589Z,94001.94
2018-06-29T09:20:06.085Z,93992.80
2018-06-29T09:22:35.643Z,93997.80
2018-06-29T09:25:05.655Z,93998.08
2018-06-29T09:27:34.908Z,94005.91
2018-06-29T09:30:04.186Z,93996.23
2018-06-29T09:32:33.301Z,93992.28
2018-06-29T09:35:02.850Z,93991.80
2018-06-29T09:37:32.301Z,93995.73
2018-06-29T09:40:01.564Z,94006.77
2018-06-29T09:42:30.912Z,93999.68
2018-06-29T09:45:00.277Z,93997.07
2018-06-29T09:47:29.964Z,93997.05
2018-06-29T09:49:59.481Z,94003.89
2018-06-29T09:52:28.987Z,94006.78
2018-06-29T09:54:58.503Z,94014.14
2018-06-29T09:57:27.999Z,94008.34
2018-06-29T09:59:57.484Z,94002.80
2018-06-29T10:02:31.689Z,93994.17
2018-06-29T10:04:56.689Z,93990.78
2018-06-29T10:07:26.241Z,93990.02
2018-06-29T10:09:55.952Z,93997.94
2018-06-29T10:12:26.009Z,93987.17
2018-06-29T10:14:55.375Z,93981.43
2018-06-29T10:17:24.590Z,93983.59
2018-06-29T10:19:53.798Z,93981.77
2018-06-29T10:22:22.993Z,93990.14
2018-06-29T10:24:52.056Z,94002.20
2018-06-29T10:27:21.273Z,93996.12
2018-06-29T10:29:50.324Z,93992.21
2018-06-29T10:32:19.438Z,93994.34
2018-06-29T10:34:48.484Z,93990.15
2018-06-29T10:37:17.507Z,93992.77
2018-06-29T10:39:46.603Z,93990.67
2018-06-29T10:42:15.644Z,93985.96
2018-06-29T10:44:44.846Z,93989.36
2018-06-29T10:47:13.912Z,93988.05
2018-06-29T10:49:43.100Z,93985.69
2018-06-29T10:52:12.211Z,93987.81
2018-06-29T10:54:41.837Z,93982.02
2018-06-29T10:57:12.777Z,93990.16
2018-06-29T10:59:42.074Z,93994.35
2018-06-29T11:02:11.475Z,93997.25
2018-06-29T11:04:41.369Z,93995.68
2018-06-29T11:07:10.895Z,94000.38
2018-06-29T11:09:40.262Z,94004.07
2018-06-29T11:12:11.107Z,94010.10
2018-06-29T11:14:40.752Z,94005.91
2018-06-29T11:17:10.641Z,94008.02
2018-06-29T11:19:40.758Z,94006.96
2018-06-29T11:22:10.100Z,94003.28
2018-06-29T11:24:40.389Z,94002.50
2018-06-29T11:27:10.555Z,94000.38
2018-06-29T11:29:39.911Z,93996.73
2018-06-29T11:32:09.685Z,93996.20
2018-06-29T11:34:39.270Z,94001.16
2018-06-29T11:37:08.718Z,94004.05
2018-06-29T11:39:38.511Z,94006.43
2018-06-29T11:42:08.166Z,94005.12
2018-06-29T11:44:37.617Z,94009.58
2018-06-29T11:47:07.481Z,94004.31
2018-06-29T11:49:36.674Z,94014.05
2018-06-29T11:52:05.973Z,94012.22
2018-06-29T11:54:35.712Z,94015.88
2018-06-29T11:57:05.092Z,94018.50
2018-06-29T11:59:34.332Z,94022.72
2018-06-29T12:02:03.390Z,94015.89
2018-06-29T12:04:32.555Z,94017.22
2018-06-29T12:07:01.548Z,94010.10
2018-06-29T12:09:30.632Z,94004.58
2018-06-29T12:11:59.735Z,94001.66
2018-06-29T12:14:29.553Z,93997.19
2018-06-29T12:16:58.630Z,94000.11
2018-06-29T12:19:27.723Z,93997.22
2018-06-29T12:21:56.865Z,93989.27
2018-06-29T12:24:26.450Z,93985.59
2018-06-29T12:26:55.576Z,93985.32
2018-06-29T12:29:24.968Z,93991.61
2018-06-29T12:31:54.782Z,93988.97
2018-06-29T12:34:24.282Z,93981.34
2018-06-29T12:36:53.813Z,93977.39
2018-06-29T12:39:24.251Z,93975.45
2018-06-29T12:41:53.543Z,93983.63
2018-06-29T12:44:22.824Z,93973.08
2018-06-29T12:46:51.913Z,93974.92
2018-06-29T12:49:21.857Z,93969.95
2018-06-29T12:51:50.940Z,93962.58
2018-06-29T12:54:19.984Z,93968.34
2018-06-29T12:56:49.216Z,93965.91
2018-06-29T12:59:18.786Z,93962.89
2018-06-29T13:01:48.248Z,93965.61
2018-06-29T13:04:17.794Z,93966.95
2018-06-29T13:06:47.696Z,93966.52
2018-06-29T13:09:18.111Z,93971.25
2018-06-29T13:11:47.822Z,93973.38
2018-06-29T13:14:17.696Z,93970.88
2018-06-29T13:16:47.008Z,93960.62
2018-06-29T13:19:16.435Z,93963.99
2018-06-29T13:21:47.758Z,93963.78
2018-06-29T13:24:17.172Z,93961.53
2018-06-29T13:26:46.847Z,93969.50
2018-06-29T13:29:16.293Z,93960.89
2018-06-29T13:31:51.279Z,93963.78
2018-06-29T13:34:20.873Z,93965.11
2018-06-29T13:36:50.316Z,93957.75
2018-06-29T13:39:20.094Z,93967.22
2018-06-29T13:41:49.676Z,93968.02
2018-06-29T13:44:19.369Z,93964.60
2018-06-29T13:46:48.928Z,93965.91
2018-06-29T13:49:19.121Z,93967.49
2018-06-29T13:51:48.668Z,93963.28
2018-06-29T13:54:17.704Z,93968.28
2018-06-29T13:56:46.871Z,93968.28
2018-06-29T13:59:16.525Z,93968.81
2018-06-29T14:01:45.634Z,93975.64
2018-06-29T14:04:14.757Z,93977.48
2018-06-29T14:06:43.981Z,93984.31
2018-06-29T14:09:14.375Z,93980.37
2018-06-29T14:11:43.955Z,93974.36
2018-06-29T14:14:13.061Z,93983.52
2018-06-29T14:16:42.467Z,93981.42
2018-06-29T14:19:12.145Z,93986.19
2018-06-29T14:21:41.519Z,93988.02
2018-06-29T14:24:10.918Z,93985.69
2018-06-29T14:26:40.733Z,93983.03
2018-06-29T14:29:10.350Z,93988.81
2018-06-29T14:31:39.733Z,93991.20
2018-06-29T14:34:09.960Z,93988.84
2018-06-29T14:36:40.137Z,93983.06
2018-06-29T14:39:10.670Z,93973.60
2018-06-29T14:41:40.064Z,93973.31
2018-06-29T14:44:10.243Z,93969.33
2018-06-29T14:46:40.434Z,93978.30
2018-06-29T14:49:10.201Z,93975.94
2018-06-29T14:51:39.699Z,93970.69
2018-06-29T14:54:09.096Z,93970.16
2018-06-29T14:56:38.615Z,93960.97
2018-06-29T14:59:08.057Z,93967.27
2018-06-29T15:01:38.401Z,93963.33
2018-06-29T15:04:07.720Z,93965.69
2018-06-29T15:06:37.230Z,93956.77
2018-06-29T15:09:09.392Z,93958.34
2018-06-29T15:11:39.050Z,93954.92
2018-06-29T15:14:08.714Z,93958.03
2018-06-29T15:16:38.859Z,93958.30
2018-06-29T15:19:08.443Z,93958.28
2018-06-29T15:21:38.110Z,93954.88
2018-06-29T15:24:07.544Z,93964.33
2018-06-29T15:26:36.651Z,93960.39
2018-06-29T15:29:05.653Z,93964.06
2018-06-29T15:31:35.184Z,93966.70
2018-06-29T15:34:04.602Z,93964.33
2018-06-29T15:36:33.923Z,93961.70
2018-06-29T15:39:03.817Z,93953.82
2018-06-29T15:41:33.386Z,93964.34
2018-06-29T15:44:02.616Z,93958.55
2018-06-29T15:46:31.960Z,93959.59
2018-06-29T15:49:01.368Z,93958.52
2018-06-29T15:51:30.864Z,93967.45
2018-06-29T15:54:00.197Z,93973.72
2018-06-29T15:56:29.938Z,93973.72
2018-06-29T15:58:59.280Z,93975.30
2018-06-29T16:01:29.384Z,93972.71
2018-06-29T16:03:58.764Z,93964.83
2018-06-29T16:06:28.865Z,93971.14
2018-06-29T16:08:58.376Z,93958.98
2018-06-29T16:11:28.311Z,93957.46
2018-06-29T16:13:57.862Z,93967.91
2018-06-29T16:16:27.238Z,93971.34
2018-06-29T16:18:56.732Z,93976.08
2018-06-29T16:21:26.147Z,93990.33
2018-06-29T16:23:55.597Z,93987.72
2018-06-29T16:26:25.770Z,93990.09
2018-06-29T16:28:55.154Z,93984.57
2018-06-29T16:31:24.848Z,93982.73
2018-06-29T16:33:54.342Z,93973.54
2018-06-29T16:36:23.861Z,93967.76
2018-06-29T16:38:53.450Z,93975.38
2018-06-29T16:41:22.811Z,93969.06
2018-06-29T16:43:52.322Z,93970.64
2018-06-29T16:46:21.765Z,93980.63
2018-06-29T16:48:51.265Z,93976.69
2018-06-29T16:51:20.693Z,93975.37
2018-06-29T16:53:50.141Z,93971.69
2018-06-29T16:56:19.482Z,93964.08
2018-06-29T16:58:49.239Z,93969.11
2018-06-29T17:01:19.496Z,93969.90
2018-06-29T17:03:48.903Z,93968.84
2018-06-29T17:06:18.289Z,93972.79
2018-06-29T17:08:47.836Z,93980.93
2018-06-29T17:11:17.404Z,93988.05
2018-06-29T17:13:46.841Z,93985.42
2018-06-29T17:16:16.163Z,93986.73
2018-06-29T17:18:46.012Z,93983.84
2018-06-29T17:21:15.375Z,93988.58
2018-06-29T17:23:45.683Z,93982.27
2018-06-29T17:26:14.918Z,93988.83
2018-06-29T17:28:44.917Z,93992.25
2018-06-29T17:31:14.461Z,93990.67
2018-06-29T17:33:44.719Z,93987.52
2018-06-29T17:36:13.799Z,93992.00
2018-06-29T17:38:44.696Z,93994.08
2018-06-29T17:41:13.718Z,94000.14
2018-06-29T17:43:42.806Z,94001.45
2018-06-29T17:46:11.914Z,94009.85
2018-06-29T17:48:41.096Z,94005.13
2018-06-29T17:51:10.260Z,94005.40
2018-06-29T17:53:39.490Z,94008.80
2018-06-29T17:56:08.701Z,94002.75
2018-06-29T17:58:37.723Z,94003.28
2018-06-29T18:01:06.995Z,94005.90
2018-06-29T18:03:36.258Z,94011.92
2018-06-29T18:06:05.902Z,94010.36
2018-06-29T18:08:35.461Z,94020.86
2018-06-29T18:11:04.929Z,94028.98
2018-06-29T18:13:34.410Z,94021.89
2018-06-29T18:16:03.548Z,94027.92
2018-06-29T18:18:32.753Z,94026.09
2018-06-29T18:21:02.040Z,94026.61
2018-06-29T18:23:31.915Z,94026.58
2018-06-29T18:26:01.008Z,94032.08
2018-06-29T18:28:30.133Z,94033.41
2018-06-29T18:30:59.755Z,94038.45
2018-06-29T18:33:28.964Z,94035.77
2018-06-29T18:35:58.149Z,94038.66
2018-06-29T18:38:27.748Z,94034.17
2018-06-29T18:40:56.856Z,94036.53
2018-06-29T18:43:26.078Z,94029.17
2018-06-29T18:45:55.137Z,94024.45
2018-06-29T18:48:25.383Z,94030.75
2018-06-29T18:50:55.159Z,94033.33
2018-06-29T18:53:26.708Z,94036.22
2018-06-29T18:55:55.898Z,94031.23
2018-06-29T18:58:25.204Z,94038.30
2018-06-29T19:00:54.454Z,94049.86
2018-06-29T19:03:23.608Z,94042.25
2018-06-29T19:05:52.980Z,94049.59
2018-06-29T19:08:22.374Z,94050.90
2018-06-29T19:10:54.273Z,94053.51
2018-06-29T19:13:23.645Z,94058.75
2018-06-29T19:15:53.910Z,94060.86
2018-06-29T19:18:24.402Z,94070.27
2018-06-29T19:20:53.517Z,94074.46
2018-06-29T19:23:23.684Z,94075.99
2018-06-29T19:25:54.520Z,94081.23
2018-06-29T19:28:23.833Z,94084.90
2018-06-29T19:30:54.570Z,94087.27
2018-06-29T19:33:24.388Z,94090.16
2018-06-29T19:35:57.407Z,94087.23
2018-06-29T19:38:28.874Z,94086.43
2018-06-29T19:40:59.268Z,94084.33
2018-06-29T19:43:29.809Z,94095.39
2018-06-29T19:46:00.175Z,94090.68
2018-06-29T19:48:29.703Z,94095.94
2018-06-29T19:50:59.195Z,94102.48
2018-06-29T19:53:28.722Z,94105.64
2018-06-29T19:55:58.478Z,94101.42
2018-06-29T19:58:27.903Z,94104.56
2018-06-29T20:00:57.386Z,94102.20
2018-06-29T20:03:27.060Z,94100.86
2018-06-29T20:05:56.476Z,94104.03
2018-06-29T20:08:25.796Z,94099.06
2018-06-29T20:10:55.998Z,94105.62
2018-06-29T20:13:25.488Z,94104.83
2018-06-29T20:15:55.342Z,94104.30
2018-06-29T20:18:24.674Z,94090.92
2018-06-29T20:20:54.266Z,94092.77
2018-06-29T20:23:24.979Z,94102.73
2018-06-29T20:25:54.443Z,94101.67
2018-06-29T20:28:23.757Z,94099.30
2018-06-29T20:30:53.142Z,94100.86
2018-06-29T20:33:23.012Z,94109.23
2018-06-29T20:35:52.401Z,94113.16
2018-06-29T20:38:21.795Z,94112.09
2018-06-29T20:40:51.134Z,94112.61
2018-06-29T20:43:20.512Z,94116.55
2018-06-29T20:45:49.864Z,94119.69
2018-06-29T20:48:19.435Z,94119.95
2018-06-29T20:50:49.738Z,94118.38
2018-06-29T20:53:21.076Z,94121.25
2018-06-29T20:55:51.613Z,94123.05
2018-06-29T20:58:21.015Z,94117.59
2018-06-29T21:00:50.415Z,94113.89
2018-06-29T21:03:19.830Z,94122.03
2018-06-29T21:05:49.274Z,94118.88
2018-06-29T21:08:18.746Z,94115.95
2018-06-29T21:10:48.125Z,94112.55
2018-06-29T21:13:17.514Z,94115.70
2018-06-29T21:15:47.013Z,94117.25
2018-06-29T21:18:16.431Z,94115.44
2018-06-29T21:20:45.945Z,94119.87
2018-06-29T21:23:15.318Z,94113.55
2018-06-29T21:25:44.713Z,94119.05
2018-06-29T21:28:14.138Z,94119.06
2018-06-29T21:30:43.457Z,94115.38
2018-06-29T21:33:12.991Z,94110.66
2018-06-29T21:35:42.278Z,94111.44
2018-06-29T21:38:11.610Z,94115.92
2018-06-29T21:40:41.019Z,94115.66
2018-06-29T21:43:10.472Z,94110.41
2018-06-29T21:45:40.091Z,94109.37
2018-06-29T21:48:10.261Z,94103.08
2018-06-29T21:50:39.891Z,94108.30
2018-06-29T21:53:09.453Z,94108.58
2018-06-29T21:55:38.889Z,94110.91
2018-06-29T21:58:11.298Z,94109.10
2018-06-29T22:00:40.937Z,94105.02
2018-06-29T22:03:11.542Z,94101.27
2018-06-29T22:05:42.164Z,94107.25
2018-06-29T22:08:11.989Z,94104.11
2018-06-29T22:10:41.623Z,94110.64
2018-06-29T22:13:11.045Z,94112.49
2018-06-29T22:15:40.565Z,94108.77
2018-06-29T22:18:10.240Z,94108.79
2018-06-29T22:20:39.559Z,94098.58
2018-06-29T22:23:09.988Z,94103.30
2018-06-29T22:25:39.349Z,94103.82
2018-06-29T22:28:08.708Z,94096.75
2018-06-29T22:30:38.033Z,94104.09
2018-06-29T22:33:07.559Z,94093.11
2018-06-29T22:35:36.859Z,94091.78
2018-06-29T22:38:06.816Z,94097.29
2018-06-29T22:40:41.104Z,94098.33
2018-06-29T22:43:10.618Z,94095.19
2018-06-29T22:45:39.899Z,94088.38
2018-06-29T22:48:09.187Z,94098.27
2018-06-29T22:50:38.475Z,94093.34
2018-06-29T22:53:08.006Z,94099.08
2018-06-29T22:55:37.404Z,94099.58
2018-06-29T22:58:11.019Z,94095.92
2018-06-29T23:00:40.279Z,94091.72
2018-06-29T23:03:12.149Z,94096.19
2018-06-29T23:05:41.630Z,94092.26
2018-06-29T23:08:12.040Z,94090.45
2018-06-29T23:10:41.515Z,94081.76
2018-06-29T23:13:11.277Z,94082.62
2018-06-29T23:15:40.645Z,94086.02
2018-06-29T23:18:10.047Z,94077.39
2018-06-29T23:20:39.662Z,94084.42
2018-06-29T23:23:09.051Z,94082.34
2018-06-29T23:25:38.584Z,94083.03
2018-06-29T23:28:07.994Z,94077.47
2018-06-29T23:30:37.385Z,94073.52
2018-06-29T23:33:11.134Z,94075.38
2018-06-29T23:35:41.055Z,94073.30
2018-06-29T23:38:11.558Z,94067.25
2018-06-29T23:40:40.907Z,94069.88
2018-06-29T23:43:10.391Z,94070.45
2018-06-29T23:45:39.788Z,94064.97
2018-06-29T23:48:09.075Z,94066.54
2018-06-29T23:50:38.714Z,94071.95
2018-06-29T23:53:08.095Z,94072.98
2018-06-29T23:55:37.827Z,94063.27
2018-06-29T23:58:07.996Z,94063.27
